createdAt,value
2022-09-13T00:00:09.805Z,18.30
2022-09-13T00:02:37.187Z,18.30
2022-09-13T00:05:05.099Z,18.00
2022-09-13T00:07:32.521Z,17.60
2022-09-13T00:10:00.431Z,17.40
2022-09-13T00:12:27.861Z,17.20
2022-09-13T00:14:55.254Z,17.20
2022-09-13T00:17:23.171Z,17.30
2022-09-13T00:19:50.489Z,17.50
2022-09-13T00:22:18.004Z,17.50
2022-09-13T00:24:45.712Z,17.60
2022-09-13T00:27:13.538Z,17.60
2022-09-13T00:29:40.822Z,17.80
2022-09-13T00:32:08.155Z,17.80
2022-09-13T00:34:35.429Z,17.80
2022-09-13T00:37:02.810Z,17.80
2022-09-13T00:39:30.569Z,18.00
2022-09-13T00:41:58.195Z,18.10
2022-09-13T00:44:50.688Z,18.20
2022-09-13T00:47:26.602Z,18.20
2022-09-13T00:50:00.556Z,17.90
2022-09-13T00:52:31.611Z,17.50
2022-09-13T00:55:19.832Z,17.00
2022-09-13T00:57:47.741Z,16.80
2022-09-13T01:00:19.483Z,16.90
2022-09-13T01:03:00.791Z,17.00
2022-09-13T01:05:32.981Z,17.20
2022-09-13T01:08:02.448Z,17.40
2022-09-13T01:10:31.876Z,17.50
2022-09-13T01:13:15.429Z,17.50
2022-09-13T01:15:46.127Z,17.20
2022-09-13T01:18:14.309Z,17.00
2022-09-13T01:21:12.998Z,17.00
2022-09-13T01:23:53.057Z,17.20
2022-09-13T01:26:47.931Z,17.20
2022-09-13T01:29:24.543Z,17.50
2022-09-13T01:31:56.794Z,17.50
2022-09-13T01:34:48.365Z,17.50
2022-09-13T01:37:28.119Z,17.60
2022-09-13T01:40:18.605Z,17.80
2022-09-13T01:43:09.217Z,17.50
2022-09-13T01:45:49.556Z,17.40
2022-09-13T01:48:41.625Z,17.50
2022-09-13T01:51:34.109Z,17.70
2022-09-13T01:54:01.758Z,17.80
2022-09-13T01:57:21.580Z,17.80
2022-09-13T01:59:53.535Z,17.80
2022-09-13T02:02:31.909Z,17.60
2022-09-13T02:05:18.011Z,17.50
2022-09-13T02:07:53.450Z,17.40
2022-09-13T02:10:30.683Z,17.50
2022-09-13T02:12:59.537Z,17.50
2022-09-13T02:15:36.198Z,17.50
2022-09-13T02:18:12.673Z,17.00
2022-09-13T02:20:45.546Z,17.00
2022-09-13T02:23:23.027Z,17.20
2022-09-13T02:25:53.460Z,17.40
2022-09-13T02:28:24.287Z,17.50
2022-09-13T02:30:55.041Z,17.60
2022-09-13T02:33:52.685Z,17.40
2022-09-13T02:36:31.894Z,17.20
2022-09-13T02:39:12.288Z,16.80
2022-09-13T02:42:13.136Z,16.50
2022-09-13T02:44:45.590Z,16.40
2022-09-13T02:47:25.752Z,16.50
2022-09-13T02:50:19.086Z,16.80
2022-09-13T02:53:38.148Z,17.00
2022-09-13T02:56:08.162Z,17.20
2022-09-13T02:58:45.045Z,17.30
2022-09-13T03:01:13.068Z,17.20
2022-09-13T03:03:40.488Z,17.00
2022-09-13T03:06:08.421Z,17.00
2022-09-13T03:08:37.350Z,17.00
2022-09-13T03:11:18.621Z,16.80
2022-09-13T03:14:04.514Z,16.40
2022-09-13T03:17:02.990Z,16.10
2022-09-13T03:19:42.931Z,16.20
2022-09-13T03:22:47.722Z,16.40
2022-09-13T03:25:50.411Z,16.40
2022-09-13T03:28:28.118Z,16.10
2022-09-13T03:31:20.858Z,15.80
2022-09-13T03:34:26.752Z,16.00
2022-09-13T03:37:06.323Z,16.20
2022-09-13T03:39:42.379Z,16.50
2022-09-13T03:42:41.346Z,16.80
2022-09-13T03:45:11.897Z,16.90
2022-09-13T03:47:40.593Z,17.00
2022-09-13T03:50:09.053Z,17.00
2022-09-13T03:52:36.698Z,17.00
2022-09-13T03:55:05.143Z,17.00
2022-09-13T03:57:32.490Z,16.40
2022-09-13T04:00:00.129Z,16.10
2022-09-13T04:02:29.293Z,16.00
2022-09-13T04:04:56.699Z,16.00
2022-09-13T04:07:25.369Z,16.10
2022-09-13T04:09:53.196Z,16.20
2022-09-13T04:12:20.650Z,16.20
2022-09-13T04:14:48.201Z,16.40
2022-09-13T04:17:16.008Z,16.50
2022-09-13T04:19:47.280Z,16.20
2022-09-13T04:22:14.740Z,16.20
2022-09-13T04:24:43.463Z,16.20
2022-09-13T04:27:11.035Z,16.20
2022-09-13T04:29:38.657Z,16.00
2022-09-13T04:32:06.135Z,16.10
2022-09-13T04:34:33.646Z,16.30
2022-09-13T04:37:01.075Z,16.00
2022-09-13T04:39:28.371Z,15.80
2022-09-13T04:41:55.721Z,15.80
2022-09-13T04:44:24.560Z,15.90
2022-09-13T04:46:52.962Z,15.90
2022-09-13T04:49:20.819Z,16.00
2022-09-13T04:51:48.842Z,15.60
2022-09-13T04:54:16.588Z,15.30
2022-09-13T04:56:45.145Z,15.20
2022-09-13T04:59:13.088Z,15.30
2022-09-13T05:01:41.469Z,15.60
2022-09-13T05:04:10.495Z,16.00
2022-09-13T05:06:38.486Z,16.20
2022-09-13T05:09:06.321Z,16.40
2022-09-13T05:11:35.531Z,16.30
2022-09-13T05:14:03.065Z,16.40
2022-09-13T05:16:32.742Z,16.40
2022-09-13T05:19:00.906Z,16.40
2022-09-13T05:21:28.832Z,16.00
2022-09-13T05:23:57.366Z,16.00
2022-09-13T05:26:27.191Z,16.20
2022-09-13T05:28:54.815Z,16.40
2022-09-13T05:31:30.763Z,16.60
2022-09-13T05:34:13.811Z,16.90
2022-09-13T05:36:42.120Z,17.00
2022-09-13T05:42:03.012Z,17.40
2022-09-13T05:44:30.356Z,17.50
2022-09-13T05:46:58.109Z,17.70
2022-09-13T05:49:25.342Z,17.80
2022-09-13T05:51:53.260Z,17.80
2022-09-13T05:54:20.727Z,17.40
2022-09-13T05:56:48.450Z,17.30
2022-09-13T05:59:16.087Z,17.30
2022-09-13T06:01:43.598Z,17.50
2022-09-13T06:04:12.679Z,17.50
2022-09-13T06:06:40.069Z,17.60
2022-09-13T06:09:08.813Z,17.80
2022-09-13T06:11:36.195Z,17.90
2022-09-13T06:14:03.754Z,18.00
2022-09-13T06:16:31.131Z,18.00
2022-09-13T06:18:59.189Z,18.00
2022-09-13T06:21:29.110Z,18.00
2022-09-13T06:23:57.248Z,18.10
2022-09-13T06:26:28.846Z,18.30
2022-09-13T06:28:58.279Z,18.40
2022-09-13T06:31:28.236Z,18.50
2022-09-13T06:34:02.610Z,18.70
2022-09-13T06:36:30.434Z,18.90
2022-09-13T06:39:00.785Z,19.10
2022-09-13T06:41:28.491Z,19.10
2022-09-13T06:43:57.936Z,19.20
2022-09-13T06:46:27.017Z,19.30
2022-09-13T06:48:55.085Z,19.40
2022-09-13T06:51:24.869Z,19.50
2022-09-13T06:53:53.750Z,19.70
2022-09-13T06:56:26.263Z,19.90
2022-09-13T06:58:58.003Z,20.00
2022-09-13T07:01:27.055Z,20.30
2022-09-13T07:04:05.913Z,20.50
2022-09-13T07:06:38.638Z,20.50
2022-09-13T07:09:10.154Z,20.60
2022-09-13T07:11:40.110Z,20.70
2022-09-13T07:14:07.931Z,20.60
2022-09-13T07:16:37.914Z,20.50
2022-09-13T07:19:07.985Z,20.70
2022-09-13T07:21:36.088Z,20.80
2022-09-13T07:24:04.548Z,20.90
2022-09-13T07:26:32.006Z,21.00
2022-09-13T07:29:12.447Z,21.10
2022-09-13T07:31:40.330Z,21.00
2022-09-13T07:34:13.027Z,21.10
2022-09-13T07:36:40.542Z,21.40
2022-09-13T07:39:12.187Z,21.50
2022-09-13T07:41:42.529Z,21.70
2022-09-13T07:44:11.865Z,21.80
2022-09-13T07:46:43.776Z,21.90
2022-09-13T07:49:13.448Z,21.90
2022-09-13T07:51:42.598Z,21.90
2022-09-13T07:54:15.481Z,22.10
2022-09-13T07:56:43.028Z,22.30
2022-09-13T07:59:15.283Z,22.30
2022-09-13T08:01:50.278Z,22.20
2022-09-13T08:04:21.526Z,22.30
2022-09-13T08:06:50.106Z,22.50
2022-09-13T08:09:17.860Z,22.60
2022-09-13T08:11:47.841Z,22.60
2022-09-13T08:15:18.604Z,22.50
2022-09-13T08:17:46.030Z,22.70
2022-09-13T08:20:13.356Z,23.00
2022-09-13T08:22:40.813Z,23.10
2022-09-13T08:25:09.228Z,23.10
2022-09-13T08:27:36.688Z,23.30
2022-09-13T08:30:06.973Z,23.30
2022-09-13T08:32:34.994Z,23.40
2022-09-13T08:35:02.543Z,23.60
2022-09-13T08:37:29.943Z,23.80
2022-09-13T08:39:57.242Z,23.80
2022-09-13T08:43:03.290Z,23.90
2022-09-13T08:45:31.573Z,24.00
2022-09-13T08:48:04.733Z,24.00
2022-09-13T08:50:34.932Z,24.10
2022-09-13T08:53:24.541Z,24.20
2022-09-13T08:56:10.748Z,24.40
2022-09-13T08:59:15.388Z,24.40
2022-09-13T09:01:59.970Z,24.40
2022-09-13T09:04:27.611Z,24.40
2022-09-13T09:07:15.369Z,24.40
2022-09-13T09:09:57.109Z,24.40
2022-09-13T09:12:39.606Z,24.50
2022-09-13T09:15:14.590Z,24.50
2022-09-13T09:17:48.230Z,24.50
2022-09-13T09:20:27.059Z,24.40
2022-09-13T09:22:55.427Z,24.60
2022-09-13T09:25:26.402Z,24.80
2022-09-13T09:27:55.135Z,25.00
2022-09-13T09:30:22.897Z,24.80
2022-09-13T09:33:07.891Z,25.00
2022-09-13T09:35:54.516Z,25.00
2022-09-13T09:38:37.331Z,24.90
2022-09-13T09:41:12.918Z,25.30
2022-09-13T09:43:59.883Z,25.70
2022-09-13T09:46:32.266Z,26.00
2022-09-13T09:49:53.736Z,26.00
2022-09-13T09:52:28.608Z,26.10
2022-09-13T09:55:04.849Z,26.10
2022-09-13T09:58:05.196Z,26.20
2022-09-13T10:00:51.864Z,26.10
2022-09-13T10:03:32.597Z,26.40
2022-09-13T10:06:19.110Z,26.50
2022-09-13T10:09:00.593Z,26.60
2022-09-13T10:11:54.482Z,26.80
2022-09-13T10:14:29.449Z,26.90
2022-09-13T10:17:24.582Z,26.70
2022-09-13T10:20:13.550Z,26.70
2022-09-13T10:22:43.014Z,26.80
2022-09-13T10:25:27.297Z,26.80
2022-09-13T10:27:58.200Z,27.10
2022-09-13T10:30:49.059Z,26.90
2022-09-13T10:33:32.356Z,26.80
2022-09-13T10:36:14.096Z,26.90
2022-09-13T10:39:06.993Z,27.00
2022-09-13T10:41:42.915Z,27.30
2022-09-13T10:44:31.932Z,27.70
2022-09-13T10:47:04.536Z,28.00
2022-09-13T10:49:54.043Z,27.90
2022-09-13T10:52:47.732Z,27.40
2022-09-13T10:55:24.504Z,27.80
2022-09-13T10:58:01.895Z,28.10
2022-09-13T11:00:55.531Z,28.30
2022-09-13T11:03:56.399Z,28.30
2022-09-13T11:06:48.995Z,28.50
2022-09-13T11:09:24.129Z,28.60
2022-09-13T11:11:51.508Z,28.70
2022-09-13T11:14:38.594Z,28.40
2022-09-13T11:17:26.811Z,28.10
2022-09-13T11:20:17.057Z,28.00
2022-09-13T11:23:11.270Z,28.00
2022-09-13T11:25:50.429Z,28.20
2022-09-13T11:28:36.583Z,28.50
2022-09-13T11:31:22.717Z,28.90
2022-09-13T11:34:11.925Z,29.10
2022-09-13T11:36:49.946Z,28.70
2022-09-13T11:39:43.764Z,28.50
2022-09-13T11:42:20.294Z,28.60
2022-09-13T11:45:21.737Z,29.00
2022-09-13T11:48:04.589Z,29.40
2022-09-13T11:50:55.771Z,29.10
2022-09-13T11:53:50.406Z,28.50
2022-09-13T11:56:32.551Z,28.50
2022-09-13T11:59:20.935Z,28.50
2022-09-13T12:02:00.732Z,28.10
2022-09-13T12:04:38.889Z,28.50
2022-09-13T12:07:13.818Z,28.10
2022-09-13T12:10:08.849Z,28.30
2022-09-13T12:12:37.877Z,28.40
2022-09-13T12:15:15.661Z,28.30
2022-09-13T12:17:48.395Z,28.00
2022-09-13T12:20:38.416Z,28.20
2022-09-13T12:23:09.484Z,28.10
2022-09-13T12:25:57.849Z,28.20
2022-09-13T12:28:27.683Z,28.20
2022-09-13T12:31:21.154Z,28.30
2022-09-13T12:33:49.653Z,28.30
2022-09-13T12:36:41.313Z,28.50
2022-09-13T12:39:37.058Z,28.40
2022-09-13T12:42:28.915Z,28.10
2022-09-13T12:45:04.660Z,28.30
2022-09-13T12:47:54.156Z,28.50
2022-09-13T12:50:52.308Z,28.50
2022-09-13T12:53:57.556Z,28.60
2022-09-13T12:56:51.626Z,28.30
2022-09-13T13:00:12.697Z,28.30
2022-09-13T13:03:12.001Z,28.00
2022-09-13T13:05:46.624Z,27.90
2022-09-13T13:08:21.004Z,28.00
2022-09-13T13:11:00.316Z,28.10
2022-09-13T13:13:38.275Z,28.10
2022-09-13T13:16:21.939Z,28.30
2022-09-13T13:18:52.695Z,28.30
2022-09-13T13:21:36.508Z,28.30
2022-09-13T13:24:16.155Z,28.40
2022-09-13T13:26:43.563Z,28.30
2022-09-13T13:29:31.108Z,28.10
2022-09-13T13:32:03.280Z,28.20
2022-09-13T13:34:51.039Z,28.00
2022-09-13T13:37:19.095Z,28.00
2022-09-13T13:40:07.355Z,28.10
2022-09-13T13:42:38.504Z,28.00
2022-09-13T13:45:21.010Z,27.90
2022-09-13T13:48:05.935Z,27.80
2022-09-13T13:50:36.238Z,27.80
2022-09-13T13:53:23.176Z,28.00
2022-09-13T13:56:28.759Z,27.90
2022-09-13T13:59:06.727Z,27.80
2022-09-13T14:01:39.254Z,27.80
2022-09-13T14:04:22.999Z,27.70
2022-09-13T14:07:21.816Z,27.70
2022-09-13T14:10:12.443Z,27.80
2022-09-13T14:12:49.305Z,28.00
2022-09-13T14:15:33.330Z,28.00
2022-09-13T14:18:04.848Z,27.90
2022-09-13T14:20:32.194Z,28.10
2022-09-13T14:23:20.777Z,28.00
2022-09-13T14:25:55.952Z,27.80
2022-09-13T14:28:24.043Z,27.90
2022-09-13T14:30:57.085Z,27.90
2022-09-13T14:33:35.058Z,27.90
2022-09-13T14:36:06.335Z,27.80
2022-09-13T14:38:36.572Z,27.70
2022-09-13T14:41:16.135Z,27.60
2022-09-13T14:43:45.324Z,27.60
2022-09-13T14:46:37.151Z,27.60
2022-09-13T14:49:10.295Z,27.80
2022-09-13T14:51:49.693Z,27.80
2022-09-13T14:54:28.816Z,27.90
2022-09-13T14:57:00.308Z,27.60
2022-09-13T14:59:36.069Z,27.50
2022-09-13T15:02:36.605Z,27.50
2022-09-13T15:05:12.698Z,27.50
2022-09-13T15:07:42.261Z,27.50
2022-09-13T15:10:18.736Z,27.60
2022-09-13T15:13:05.528Z,27.70
2022-09-13T15:15:43.189Z,27.50
2022-09-13T15:18:23.947Z,27.50
2022-09-13T15:20:59.069Z,27.30
2022-09-13T15:23:35.333Z,27.30
2022-09-13T15:26:12.469Z,27.30
2022-09-13T15:28:48.760Z,27.30
2022-09-13T15:31:25.595Z,27.30
2022-09-13T15:34:17.851Z,27.30
2022-09-13T15:36:47.070Z,27.20
2022-09-13T15:39:20.959Z,27.20
2022-09-13T15:42:00.169Z,27.20
2022-09-13T15:44:30.014Z,27.10
2022-09-13T15:47:02.653Z,27.00
2022-09-13T15:49:31.130Z,27.00
2022-09-13T15:52:03.789Z,26.90
2022-09-13T15:54:40.935Z,26.80
2022-09-13T15:57:29.662Z,26.70
2022-09-13T16:00:02.643Z,26.60
2022-09-13T16:02:37.051Z,26.60
2022-09-13T16:05:05.809Z,26.60
2022-09-13T16:07:33.047Z,26.70
2022-09-13T16:10:01.877Z,26.60
2022-09-13T16:12:29.168Z,26.60
2022-09-13T16:14:56.674Z,26.60
2022-09-13T16:17:27.247Z,26.60
2022-09-13T16:19:55.292Z,26.70
2022-09-13T16:22:23.554Z,26.40
2022-09-13T16:24:51.131Z,26.00
2022-09-13T16:27:19.936Z,25.70
2022-09-13T16:29:47.512Z,25.60
2022-09-13T16:32:17.105Z,25.60
2022-09-13T16:34:44.633Z,25.60
2022-09-13T16:37:16.107Z,25.60
2022-09-13T16:39:43.706Z,25.60
2022-09-13T16:42:11.483Z,25.40
2022-09-13T16:44:38.834Z,25.30
2022-09-13T16:47:06.266Z,25.30
2022-09-13T16:49:33.543Z,25.30
2022-09-13T16:52:01.486Z,25.30
2022-09-13T16:54:31.144Z,25.30
2022-09-13T16:56:58.857Z,25.10
2022-09-13T16:59:26.184Z,25.10
2022-09-13T17:01:53.615Z,25.00
2022-09-13T17:04:21.258Z,25.00
2022-09-13T17:06:48.933Z,25.00
2022-09-13T17:09:18.658Z,24.90
2022-09-13T17:11:46.141Z,24.90
2022-09-13T17:14:17.997Z,25.00
2022-09-13T17:16:54.721Z,25.00
2022-09-13T17:19:26.291Z,25.00
2022-09-13T17:21:57.654Z,24.80
2022-09-13T17:24:27.245Z,24.70
2022-09-13T17:26:56.886Z,24.60
2022-09-13T17:29:31.194Z,24.60
2022-09-13T17:31:59.989Z,24.40
2022-09-13T17:34:28.274Z,24.40
2022-09-13T17:36:55.618Z,24.40
2022-09-13T17:39:23.305Z,24.30
2022-09-13T17:41:51.830Z,24.20
2022-09-13T17:44:19.649Z,24.20
2022-09-13T17:46:46.891Z,24.40
2022-09-13T17:49:14.437Z,24.40
2022-09-13T17:51:41.983Z,24.40
2022-09-13T17:54:11.583Z,24.40
2022-09-13T17:56:41.585Z,24.40
2022-09-13T17:59:16.138Z,24.40
2022-09-13T18:01:45.979Z,24.20
2022-09-13T18:04:15.127Z,24.20
2022-09-13T18:06:43.296Z,24.20
2022-09-13T18:09:12.179Z,24.10
2022-09-13T18:11:39.891Z,24.10
2022-09-13T18:14:11.142Z,24.00
2022-09-13T18:16:38.501Z,23.80
2022-09-13T18:19:05.924Z,23.70
2022-09-13T18:21:33.736Z,23.60
2022-09-13T18:24:03.761Z,23.50
2022-09-13T18:26:34.063Z,23.40
2022-09-13T18:29:05.457Z,23.30
2022-09-13T18:31:35.236Z,23.30
2022-09-13T18:34:08.737Z,23.40
2022-09-13T18:36:37.490Z,23.40
2022-09-13T18:39:07.414Z,23.40
2022-09-13T18:41:42.492Z,23.50
2022-09-13T18:44:13.646Z,23.50
2022-09-13T18:46:41.699Z,23.60
2022-09-13T18:49:10.410Z,23.40
2022-09-13T18:51:42.874Z,23.30
2022-09-13T18:54:16.409Z,23.30
2022-09-13T18:56:47.288Z,23.30
2022-09-13T18:59:16.085Z,23.30
2022-09-13T19:01:44.930Z,23.30
2022-09-13T19:04:15.747Z,23.40
2022-09-13T19:06:55.955Z,23.30
2022-09-13T19:09:25.081Z,23.10
2022-09-13T19:11:54.102Z,23.10
2022-09-13T19:14:24.483Z,23.00
2022-09-13T19:16:52.852Z,23.00
2022-09-13T19:19:21.218Z,23.10
2022-09-13T19:21:49.294Z,23.10
2022-09-13T19:24:19.487Z,23.00
2022-09-13T19:26:51.753Z,23.00
2022-09-13T19:29:23.807Z,23.10
2022-09-13T19:31:53.298Z,23.00
2022-09-13T19:34:22.909Z,22.90
2022-09-13T19:36:57.574Z,22.80
2022-09-13T19:39:29.996Z,22.70
2022-09-13T19:41:59.902Z,22.70
2022-09-13T19:44:27.553Z,22.50
2022-09-13T19:47:23.781Z,22.00
2022-09-13T19:49:42.626Z,21.90
2022-09-13T19:52:10.259Z,21.80
2022-09-13T19:54:37.625Z,21.70
2022-09-13T19:57:07.358Z,21.70
2022-09-13T19:59:34.746Z,21.70
2022-09-13T20:02:02.097Z,21.50
2022-09-13T20:04:30.561Z,21.50
2022-09-13T20:06:57.914Z,21.30
2022-09-13T20:09:26.044Z,20.90
2022-09-13T20:12:00.276Z,20.70
2022-09-13T20:14:28.211Z,20.60
2022-09-13T20:16:55.611Z,20.50
2022-09-13T20:19:40.122Z,20.60
2022-09-13T20:22:09.844Z,20.80
2022-09-13T20:24:37.455Z,21.00
2022-09-13T20:27:04.953Z,21.10
2022-09-13T20:29:32.236Z,21.30
2022-09-13T20:32:00.598Z,21.10
2022-09-13T20:34:28.129Z,20.50
2022-09-13T20:36:55.520Z,20.30
2022-09-13T20:39:23.302Z,20.30
2022-09-13T20:41:51.535Z,20.50
2022-09-13T20:44:19.113Z,20.70
2022-09-13T20:46:46.608Z,20.70
2022-09-13T20:49:13.869Z,20.60
2022-09-13T20:51:41.240Z,20.60
2022-09-13T20:54:10.938Z,20.60
2022-09-13T20:56:38.168Z,20.70
2022-09-13T20:59:06.183Z,20.80
2022-09-13T21:01:34.384Z,20.50
2022-09-13T21:04:03.051Z,20.50
2022-09-13T21:06:32.349Z,20.50
2022-09-13T21:09:02.966Z,20.30
2022-09-13T21:11:35.823Z,20.40
2022-09-13T21:14:05.924Z,20.50
2022-09-13T21:16:36.273Z,20.50
2022-09-13T21:19:04.539Z,20.50
2022-09-13T21:21:34.882Z,20.40
2022-09-13T21:24:04.516Z,20.30
2022-09-13T21:26:32.798Z,20.30
2022-09-13T21:29:00.912Z,20.30
2022-09-13T21:31:31.895Z,20.30
2022-09-13T21:34:01.910Z,20.40
2022-09-13T21:36:29.697Z,20.50
2022-09-13T21:38:58.024Z,20.50
2022-09-13T21:41:27.219Z,20.30
2022-09-13T21:43:54.926Z,20.00
2022-09-13T21:46:25.306Z,19.90
2022-09-13T21:48:56.550Z,19.90
2022-09-13T21:51:26.684Z,20.00
2022-09-13T21:53:58.779Z,20.10
2022-09-13T21:56:29.407Z,20.20
2022-09-13T21:58:59.021Z,19.90
2022-09-13T22:01:29.985Z,19.30
2022-09-13T22:03:58.423Z,19.10
2022-09-13T22:06:30.282Z,19.10
2022-09-13T22:09:03.802Z,19.30
2022-09-13T22:11:33.456Z,19.50
2022-09-13T22:14:02.529Z,19.60
2022-09-13T22:16:32.594Z,19.60
2022-09-13T22:19:08.894Z,19.60
2022-09-13T22:21:40.340Z,19.70
2022-09-13T22:24:09.788Z,19.90
2022-09-13T22:26:40.739Z,19.90
2022-09-13T22:29:09.887Z,19.50
2022-09-13T22:31:40.169Z,19.10
2022-09-13T22:34:11.195Z,19.10
2022-09-13T22:36:38.957Z,19.20
2022-09-13T22:39:06.234Z,19.20
2022-09-13T22:41:35.334Z,19.10
2022-09-13T22:44:03.752Z,19.00
2022-09-13T22:46:33.647Z,18.60
2022-09-13T22:49:01.497Z,18.70
2022-09-13T22:51:29.858Z,18.90
2022-09-13T22:53:57.362Z,19.10
2022-09-13T22:56:30.872Z,18.90
2022-09-13T22:59:04.083Z,18.80
2022-09-13T23:01:32.286Z,18.80
2022-09-13T23:04:03.203Z,19.00
2022-09-13T23:06:32.004Z,19.20
2022-09-13T23:09:01.406Z,19.40
2022-09-13T23:11:32.013Z,19.30
2022-09-13T23:14:06.548Z,19.10
2022-09-13T23:16:42.655Z,19.10
2022-09-13T23:19:13.063Z,18.90
2022-09-13T23:21:41.910Z,18.80
2022-09-13T23:24:13.327Z,18.60
2022-09-13T23:26:41.964Z,18.60
2022-09-13T23:29:14.244Z,18.70
2022-09-13T23:31:43.344Z,18.90
2022-09-13T23:34:11.892Z,19.00
2022-09-13T23:36:41.680Z,19.00
2022-09-13T23:39:12.951Z,18.90
2022-09-13T23:41:40.298Z,18.50
2022-09-13T23:44:08.058Z,18.10
2022-09-13T23:46:35.568Z,18.00
2022-09-13T23:49:02.851Z,17.80
2022-09-13T23:51:30.559Z,17.80
2022-09-13T23:54:00.646Z,18.00
2022-09-13T23:56:31.086Z,18.20
2022-09-13T23:59:00.162Z,18.40
